sensor_id;sensor_type;location;lat;lon;timestamp;P1;durP1;ratioP1;P2;durP2;ratioP2
67195;SDS011;54122;53.538;49.366;2023-07-20T00:02:02;4.95;;;1.42;;
67195;SDS011;54122;53.538;49.366;2023-07-20T00:04:30;6.85;;;1.63;;
67195;SDS011;54122;53.538;49.366;2023-07-20T00:06:57;4.60;;;1.50;;
67195;SDS011;54122;53.538;49.366;2023-07-20T00:09:26;6.40;;;1.17;;
67195;SDS011;54122;53.538;49.366;2023-07-20T00:11:52;6.75;;;1.13;;
67195;SDS011;54122;53.538;49.366;2023-07-20T00:14:19;8.95;;;1.13;;
67195;SDS011;54122;53.538;49.366;2023-07-20T00:16:45;3.00;;;1.02;;
67195;SDS011;54122;53.538;49.366;2023-07-20T00:19:14;3.22;;;0.93;;
67195;SDS011;54122;53.538;49.366;2023-07-20T00:21:41;1.38;;;1.00;;
67195;SDS011;54122;53.538;49.366;2023-07-20T00:24:08;3.20;;;1.02;;
67195;SDS011;54122;53.538;49.366;2023-07-20T00:26:34;1.58;;;0.95;;
67195;SDS011;54122;53.538;49.366;2023-07-20T00:29:00;6.68;;;1.00;;
67195;SDS011;54122;53.538;49.366;2023-07-20T00:31:26;1.52;;;0.63;;
67195;SDS011;54122;53.538;49.366;2023-07-20T00:33:54;2.20;;;0.80;;
67195;SDS011;54122;53.538;49.366;2023-07-20T00:36:20;2.85;;;0.90;;
67195;SDS011;54122;53.538;49.366;2023-07-20T00:38:46;2.30;;;0.90;;
67195;SDS011;54122;53.538;49.366;2023-07-20T00:41:13;4.47;;;0.75;;
67195;SDS011;54122;53.538;49.366;2023-07-20T00:43:40;1.83;;;0.73;;
67195;SDS011;54122;53.538;49.366;2023-07-20T00:46:06;1.85;;;0.80;;
67195;SDS011;54122;53.538;49.366;2023-07-20T00:48:33;4.35;;;0.70;;
67195;SDS011;54122;53.538;49.366;2023-07-20T00:51:00;2.22;;;0.73;;
67195;SDS011;54122;53.538;49.366;2023-07-20T00:53:27;3.78;;;0.70;;
67195;SDS011;54122;53.538;49.366;2023-07-20T00:55:53;1.48;;;0.50;;
67195;SDS011;54122;53.538;49.366;2023-07-20T00:58:19;3.38;;;0.77;;
67195;SDS011;54122;53.538;49.366;2023-07-20T01:00:46;4.03;;;0.80;;
67195;SDS011;54122;53.538;49.366;2023-07-20T01:03:12;4.10;;;0.55;;
67195;SDS011;54122;53.538;49.366;2023-07-20T01:05:50;1.45;;;0.68;;
67195;SDS011;54122;53.538;49.366;2023-07-20T01:11:17;2.33;;;0.70;;
67195;SDS011;54122;53.538;49.366;2023-07-20T01:13:53;2.85;;;0.65;;
67195;SDS011;54122;53.538;49.366;2023-07-20T01:16:20;4.65;;;0.50;;
67195;SDS011;54122;53.538;49.366;2023-07-20T01:18:46;1.88;;;0.90;;
67195;SDS011;54122;53.538;49.366;2023-07-20T01:21:13;0.57;;;0.50;;
67195;SDS011;54122;53.538;49.366;2023-07-20T01:29:51;2.15;;;0.55;;
67195;SDS011;54122;53.538;49.366;2023-07-20T01:32:26;0.88;;;0.55;;
67195;SDS011;54122;53.538;49.366;2023-07-20T01:34:54;0.52;;;0.50;;
67195;SDS011;54122;53.538;49.366;2023-07-20T01:37:22;0.95;;;0.60;;
67195;SDS011;54122;53.538;49.366;2023-07-20T01:39:53;3.08;;;0.50;;
67195;SDS011;54122;53.538;49.366;2023-07-20T01:42:22;1.77;;;0.45;;
67195;SDS011;54122;53.538;49.366;2023-07-20T01:44:52;2.42;;;0.65;;
67195;SDS011;54122;53.538;49.366;2023-07-20T01:47:19;6.60;;;0.70;;
67195;SDS011;54122;53.538;49.366;2023-07-20T01:49:45;3.08;;;0.70;;
67195;SDS011;54122;53.538;49.366;2023-07-20T01:52:11;2.55;;;0.60;;
67195;SDS011;54122;53.538;49.366;2023-07-20T01:54:37;0.75;;;0.60;;
67195;SDS011;54122;53.538;49.366;2023-07-20T01:57:03;1.08;;;0.60;;
67195;SDS011;54122;53.538;49.366;2023-07-20T01:59:30;4.82;;;0.70;;
67195;SDS011;54122;53.538;49.366;2023-07-20T02:01:56;2.33;;;0.70;;
67195;SDS011;54122;53.538;49.366;2023-07-20T02:04:22;3.78;;;0.80;;
67195;SDS011;54122;53.538;49.366;2023-07-20T02:06:48;1.23;;;0.32;;
67195;SDS011;54122;53.538;49.366;2023-07-20T02:09:14;2.67;;;0.73;;
67195;SDS011;54122;53.538;49.366;2023-07-20T02:11:40;1.70;;;0.85;;
67195;SDS011;54122;53.538;49.366;2023-07-20T02:14:06;4.18;;;0.70;;
67195;SDS011;54122;53.538;49.366;2023-07-20T02:16:33;1.65;;;0.65;;
67195;SDS011;54122;53.538;49.366;2023-07-20T02:18:59;2.95;;;0.80;;
67195;SDS011;54122;53.538;49.366;2023-07-20T02:21:25;1.15;;;0.65;;
67195;SDS011;54122;53.538;49.366;2023-07-20T02:23:51;2.15;;;0.80;;
67195;SDS011;54122;53.538;49.366;2023-07-20T02:26:17;1.35;;;0.70;;
67195;SDS011;54122;53.538;49.366;2023-07-20T02:28:43;3.00;;;0.88;;
67195;SDS011;54122;53.538;49.366;2023-07-20T02:31:10;2.35;;;0.85;;
67195;SDS011;54122;53.538;49.366;2023-07-20T02:33:36;2.83;;;0.93;;
67195;SDS011;54122;53.538;49.366;2023-07-20T02:36:02;1.50;;;0.85;;
67195;SDS011;54122;53.538;49.366;2023-07-20T02:38:28;2.55;;;0.77;;
67195;SDS011;54122;53.538;49.366;2023-07-20T02:40:54;2.03;;;0.70;;
67195;SDS011;54122;53.538;49.366;2023-07-20T02:43:20;7.30;;;0.98;;
67195;SDS011;54122;53.538;49.366;2023-07-20T02:45:47;2.47;;;0.85;;
67195;SDS011;54122;53.538;49.366;2023-07-20T02:48:13;10.23;;;1.10;;
67195;SDS011;54122;53.538;49.366;2023-07-20T02:50:39;4.95;;;0.73;;
67195;SDS011;54122;53.538;49.366;2023-07-20T02:53:05;3.60;;;0.88;;
67195;SDS011;54122;53.538;49.366;2023-07-20T02:55:32;3.88;;;0.85;;
67195;SDS011;54122;53.538;49.366;2023-07-20T02:57:58;1.00;;;0.70;;
67195;SDS011;54122;53.538;49.366;2023-07-20T03:00:24;0.75;;;0.60;;
67195;SDS011;54122;53.538;49.366;2023-07-20T03:02:50;1.60;;;0.60;;
67195;SDS011;54122;53.538;49.366;2023-07-20T03:05:21;4.53;;;0.88;;
67195;SDS011;54122;53.538;49.366;2023-07-20T03:07:50;3.58;;;0.82;;
67195;SDS011;54122;53.538;49.366;2023-07-20T03:10:17;4.45;;;0.80;;
67195;SDS011;54122;53.538;49.366;2023-07-20T03:12:43;3.60;;;0.95;;
67195;SDS011;54122;53.538;49.366;2023-07-20T03:15:09;4.30;;;0.70;;
67195;SDS011;54122;53.538;49.366;2023-07-20T03:17:35;3.42;;;1.10;;
67195;SDS011;54122;53.538;49.366;2023-07-20T03:20:01;6.97;;;1.00;;
67195;SDS011;54122;53.538;49.366;2023-07-20T03:22:28;1.77;;;0.75;;
67195;SDS011;54122;53.538;49.366;2023-07-20T03:24:55;3.67;;;1.00;;
67195;SDS011;54122;53.538;49.366;2023-07-20T03:27:21;2.88;;;1.30;;
67195;SDS011;54122;53.538;49.366;2023-07-20T03:29:47;1.92;;;0.98;;
67195;SDS011;54122;53.538;49.366;2023-07-20T03:32:13;2.28;;;1.00;;
67195;SDS011;54122;53.538;49.366;2023-07-20T03:34:40;2.35;;;0.93;;
67195;SDS011;54122;53.538;49.366;2023-07-20T03:37:06;2.78;;;1.00;;
67195;SDS011;54122;53.538;49.366;2023-07-20T03:39:32;2.92;;;1.10;;
67195;SDS011;54122;53.538;49.366;2023-07-20T03:41:58;13.60;;;1.10;;
67195;SDS011;54122;53.538;49.366;2023-07-20T03:44:24;2.60;;;1.20;;
67195;SDS011;54122;53.538;49.366;2023-07-20T03:46:51;2.40;;;1.17;;
67195;SDS011;54122;53.538;49.366;2023-07-20T03:49:17;2.47;;;1.00;;
67195;SDS011;54122;53.538;49.366;2023-07-20T03:51:43;2.92;;;1.27;;
67195;SDS011;54122;53.538;49.366;2023-07-20T03:54:09;5.60;;;1.20;;
67195;SDS011;54122;53.538;49.366;2023-07-20T03:56:35;7.65;;;1.50;;
67195;SDS011;54122;53.538;49.366;2023-07-20T03:59:01;6.50;;;1.42;;
67195;SDS011;54122;53.538;49.366;2023-07-20T04:01:28;4.07;;;1.65;;
67195;SDS011;54122;53.538;49.366;2023-07-20T04:03:54;10.70;;;1.58;;
67195;SDS011;54122;53.538;49.366;2023-07-20T04:06:21;10.68;;;1.90;;
67195;SDS011;54122;53.538;49.366;2023-07-20T04:08:52;5.38;;;1.67;;
67195;SDS011;54122;53.538;49.366;2023-07-20T04:11:18;5.18;;;1.80;;
67195;SDS011;54122;53.538;49.366;2023-07-20T04:13:44;4.78;;;1.52;;
67195;SDS011;54122;53.538;49.366;2023-07-20T04:16:10;6.03;;;2.33;;
67195;SDS011;54122;53.538;49.366;2023-07-20T04:18:36;5.95;;;1.90;;
67195;SDS011;54122;53.538;49.366;2023-07-20T04:21:02;7.07;;;1.70;;
67195;SDS011;54122;53.538;49.366;2023-07-20T04:23:28;8.20;;;1.75;;
67195;SDS011;54122;53.538;49.366;2023-07-20T04:25:56;12.40;;;2.15;;
67195;SDS011;54122;53.538;49.366;2023-07-20T04:28:22;9.80;;;1.90;;
67195;SDS011;54122;53.538;49.366;2023-07-20T04:30:49;5.97;;;2.22;;
67195;SDS011;54122;53.538;49.366;2023-07-20T04:33:16;4.85;;;2.05;;
67195;SDS011;54122;53.538;49.366;2023-07-20T04:35:53;7.70;;;2.20;;
67195;SDS011;54122;53.538;49.366;2023-07-20T04:38:20;8.30;;;1.80;;
67195;SDS011;54122;53.538;49.366;2023-07-20T04:40:47;11.63;;;2.30;;
67195;SDS011;54122;53.538;49.366;2023-07-20T04:43:16;4.75;;;1.90;;
67195;SDS011;54122;53.538;49.366;2023-07-20T04:45:42;6.32;;;2.78;;
67195;SDS011;54122;53.538;49.366;2023-07-20T04:48:10;8.50;;;2.25;;
67195;SDS011;54122;53.538;49.366;2023-07-20T04:50:39;5.55;;;2.20;;
67195;SDS011;54122;53.538;49.366;2023-07-20T04:53:06;4.10;;;1.83;;
67195;SDS011;54122;53.538;49.366;2023-07-20T04:55:35;8.18;;;2.22;;
67195;SDS011;54122;53.538;49.366;2023-07-20T04:58:03;3.83;;;1.88;;
67195;SDS011;54122;53.538;49.366;2023-07-20T05:00:30;7.32;;;1.65;;
67195;SDS011;54122;53.538;49.366;2023-07-20T05:02:59;7.40;;;2.53;;
67195;SDS011;54122;53.538;49.366;2023-07-20T05:05:26;3.47;;;1.83;;
67195;SDS011;54122;53.538;49.366;2023-07-20T05:07:52;7.18;;;2.03;;
67195;SDS011;54122;53.538;49.366;2023-07-20T05:10:18;4.93;;;1.85;;
67195;SDS011;54122;53.538;49.366;2023-07-20T05:12:45;6.90;;;1.80;;
67195;SDS011;54122;53.538;49.366;2023-07-20T05:15:11;13.57;;;2.25;;
67195;SDS011;54122;53.538;49.366;2023-07-20T05:17:37;16.45;;;1.70;;
67195;SDS011;54122;53.538;49.366;2023-07-20T05:20:04;3.95;;;1.95;;
67195;SDS011;54122;53.538;49.366;2023-07-20T05:22:31;6.93;;;1.77;;
67195;SDS011;54122;53.538;49.366;2023-07-20T05:24:57;3.97;;;1.35;;
67195;SDS011;54122;53.538;49.366;2023-07-20T05:27:23;11.43;;;2.00;;
67195;SDS011;54122;53.538;49.366;2023-07-20T05:29:50;4.75;;;1.95;;
67195;SDS011;54122;53.538;49.366;2023-07-20T05:32:17;4.63;;;1.83;;
67195;SDS011;54122;53.538;49.366;2023-07-20T05:34:43;4.60;;;1.90;;
67195;SDS011;54122;53.538;49.366;2023-07-20T05:37:09;5.28;;;2.25;;
67195;SDS011;54122;53.538;49.366;2023-07-20T05:39:35;7.05;;;2.78;;
67195;SDS011;54122;53.538;49.366;2023-07-20T05:42:01;10.40;;;2.53;;
67195;SDS011;54122;53.538;49.366;2023-07-20T05:44:28;7.90;;;2.78;;
67195;SDS011;54122;53.538;49.366;2023-07-20T05:46:54;5.80;;;2.33;;
67195;SDS011;54122;53.538;49.366;2023-07-20T05:49:20;7.70;;;2.78;;
67195;SDS011;54122;53.538;49.366;2023-07-20T05:51:46;8.45;;;2.90;;
67195;SDS011;54122;53.538;49.366;2023-07-20T05:54:13;5.25;;;2.65;;
67195;SDS011;54122;53.538;49.366;2023-07-20T05:56:39;6.10;;;2.60;;
67195;SDS011;54122;53.538;49.366;2023-07-20T05:59:05;5.47;;;2.53;;
67195;SDS011;54122;53.538;49.366;2023-07-20T06:01:31;5.65;;;2.33;;
67195;SDS011;54122;53.538;49.366;2023-07-20T06:03:58;4.00;;;2.10;;
67195;SDS011;54122;53.538;49.366;2023-07-20T06:06:24;5.95;;;2.00;;
67195;SDS011;54122;53.538;49.366;2023-07-20T06:08:51;3.50;;;1.85;;
67195;SDS011;54122;53.538;49.366;2023-07-20T06:11:17;8.77;;;2.35;;
67195;SDS011;54122;53.538;49.366;2023-07-20T06:13:43;6.07;;;1.50;;
67195;SDS011;54122;53.538;49.366;2023-07-20T06:16:10;4.03;;;1.90;;
67195;SDS011;54122;53.538;49.366;2023-07-20T06:18:36;3.33;;;1.77;;
67195;SDS011;54122;53.538;49.366;2023-07-20T06:21:02;2.78;;;1.50;;
67195;SDS011;54122;53.538;49.366;2023-07-20T06:23:28;3.67;;;1.30;;
67195;SDS011;54122;53.538;49.366;2023-07-20T06:25:54;2.28;;;1.05;;
67195;SDS011;54122;53.538;49.366;2023-07-20T06:28:21;3.90;;;1.70;;
67195;SDS011;54122;53.538;49.366;2023-07-20T06:30:48;5.70;;;1.50;;
67195;SDS011;54122;53.538;49.366;2023-07-20T06:33:14;3.65;;;1.70;;
67195;SDS011;54122;53.538;49.366;2023-07-20T06:35:43;3.53;;;1.60;;
67195;SDS011;54122;53.538;49.366;2023-07-20T06:38:09;4.57;;;1.60;;
67195;SDS011;54122;53.538;49.366;2023-07-20T06:40:36;9.02;;;1.35;;
67195;SDS011;54122;53.538;49.366;2023-07-20T06:43:02;5.18;;;1.23;;
67195;SDS011;54122;53.538;49.366;2023-07-20T06:45:30;3.53;;;1.25;;
67195;SDS011;54122;53.538;49.366;2023-07-20T06:47:56;1.40;;;0.90;;
67195;SDS011;54122;53.538;49.366;2023-07-20T06:50:22;3.70;;;0.88;;
67195;SDS011;54122;53.538;49.366;2023-07-20T06:52:52;6.18;;;0.95;;
67195;SDS011;54122;53.538;49.366;2023-07-20T06:55:19;4.43;;;0.60;;
67195;SDS011;54122;53.538;49.366;2023-07-20T06:57:46;3.17;;;0.80;;
67195;SDS011;54122;53.538;49.366;2023-07-20T07:00:12;5.22;;;0.60;;
67195;SDS011;54122;53.538;49.366;2023-07-20T07:02:40;1.88;;;0.60;;
67195;SDS011;54122;53.538;49.366;2023-07-20T07:05:09;4.75;;;0.60;;
67195;SDS011;54122;53.538;49.366;2023-07-20T07:07:35;1.88;;;0.70;;
67195;SDS011;54122;53.538;49.366;2023-07-20T07:10:01;8.95;;;0.50;;
67195;SDS011;54122;53.538;49.366;2023-07-20T07:12:31;1.50;;;0.40;;
67195;SDS011;54122;53.538;49.366;2023-07-20T07:14:57;9.35;;;0.57;;
67195;SDS011;54122;53.538;49.366;2023-07-20T07:17:24;2.47;;;0.60;;
67195;SDS011;54122;53.538;49.366;2023-07-20T07:19:51;3.83;;;0.80;;
67195;SDS011;54122;53.538;49.366;2023-07-20T07:24:47;3.42;;;1.00;;
67195;SDS011;54122;53.538;49.366;2023-07-20T07:27:14;4.13;;;1.02;;
67195;SDS011;54122;53.538;49.366;2023-07-20T07:29:42;3.55;;;1.10;;
67195;SDS011;54122;53.538;49.366;2023-07-20T07:32:12;5.25;;;1.40;;
67195;SDS011;54122;53.538;49.366;2023-07-20T07:34:38;2.72;;;0.98;;
67195;SDS011;54122;53.538;49.366;2023-07-20T07:37:05;9.35;;;1.08;;
67195;SDS011;54122;53.538;49.366;2023-07-20T07:39:31;3.22;;;1.20;;
67195;SDS011;54122;53.538;49.366;2023-07-20T07:41:57;4.75;;;1.10;;
67195;SDS011;54122;53.538;49.366;2023-07-20T07:44:23;2.35;;;0.90;;
67195;SDS011;54122;53.538;49.366;2023-07-20T07:46:51;1.38;;;0.77;;
67195;SDS011;54122;53.538;49.366;2023-07-20T07:49:18;1.73;;;0.85;;
67195;SDS011;54122;53.538;49.366;2023-07-20T07:51:44;3.75;;;0.90;;
67195;SDS011;54122;53.538;49.366;2023-07-20T07:54:11;2.65;;;0.80;;
67195;SDS011;54122;53.538;49.366;2023-07-20T07:56:37;2.17;;;0.63;;
67195;SDS011;54122;53.538;49.366;2023-07-20T07:59:03;3.92;;;0.82;;
67195;SDS011;54122;53.538;49.366;2023-07-20T08:01:30;9.70;;;1.30;;
67195;SDS011;54122;53.538;49.366;2023-07-20T08:03:56;14.30;;;1.02;;
67195;SDS011;54122;53.538;49.366;2023-07-20T08:06:22;3.50;;;1.00;;
67195;SDS011;54122;53.538;49.366;2023-07-20T08:08:50;2.00;;;0.80;;
67195;SDS011;54122;53.538;49.366;2023-07-20T08:11:16;3.25;;;0.90;;
67195;SDS011;54122;53.538;49.366;2023-07-20T08:13:43;4.95;;;0.70;;
67195;SDS011;54122;53.538;49.366;2023-07-20T08:16:09;1.75;;;0.70;;
67195;SDS011;54122;53.538;49.366;2023-07-20T08:18:35;2.15;;;0.52;;
67195;SDS011;54122;53.538;49.366;2023-07-20T08:21:02;4.22;;;0.73;;
67195;SDS011;54122;53.538;49.366;2023-07-20T08:23:28;0.77;;;0.50;;
67195;SDS011;54122;53.538;49.366;2023-07-20T08:25:54;3.50;;;0.70;;
67195;SDS011;54122;53.538;49.366;2023-07-20T08:28:21;5.07;;;0.70;;
67195;SDS011;54122;53.538;49.366;2023-07-20T08:30:48;1.33;;;0.60;;
67195;SDS011;54122;53.538;49.366;2023-07-20T08:33:17;1.23;;;0.65;;
67195;SDS011;54122;53.538;49.366;2023-07-20T08:35:47;3.13;;;0.55;;
67195;SDS011;54122;53.538;49.366;2023-07-20T08:38:13;1.48;;;0.75;;
67195;SDS011;54122;53.538;49.366;2023-07-20T08:40:41;2.78;;;1.00;;
67195;SDS011;54122;53.538;49.366;2023-07-20T08:43:08;7.40;;;0.85;;
67195;SDS011;54122;53.538;49.366;2023-07-20T08:45:41;4.00;;;0.75;;
67195;SDS011;54122;53.538;49.366;2023-07-20T08:48:07;8.30;;;0.82;;
67195;SDS011;54122;53.538;49.366;2023-07-20T08:50:34;1.27;;;0.60;;
67195;SDS011;54122;53.538;49.366;2023-07-20T08:53:01;1.90;;;0.55;;
67195;SDS011;54122;53.538;49.366;2023-07-20T08:55:29;8.20;;;0.70;;
67195;SDS011;54122;53.538;49.366;2023-07-20T08:58:00;4.28;;;0.80;;
67195;SDS011;54122;53.538;49.366;2023-07-20T09:00:28;0.63;;;0.50;;
67195;SDS011;54122;53.538;49.366;2023-07-20T09:02:55;1.20;;;0.52;;
67195;SDS011;54122;53.538;49.366;2023-07-20T09:05:22;3.45;;;0.80;;
67195;SDS011;54122;53.538;49.366;2023-07-20T09:07:51;5.53;;;0.65;;
67195;SDS011;54122;53.538;49.366;2023-07-20T09:10:20;1.67;;;0.55;;
67195;SDS011;54122;53.538;49.366;2023-07-20T09:12:47;5.63;;;0.52;;
67195;SDS011;54122;53.538;49.366;2023-07-20T09:15:14;2.25;;;0.60;;
67195;SDS011;54122;53.538;49.366;2023-07-20T09:17:45;2.50;;;0.50;;
67195;SDS011;54122;53.538;49.366;2023-07-20T09:20:16;8.10;;;0.63;;
67195;SDS011;54122;53.538;49.366;2023-07-20T09:22:43;1.55;;;0.35;;
67195;SDS011;54122;53.538;49.366;2023-07-20T09:25:11;1.55;;;0.40;;
67195;SDS011;54122;53.538;49.366;2023-07-20T09:27:42;0.80;;;0.50;;
67195;SDS011;54122;53.538;49.366;2023-07-20T09:30:10;1.00;;;0.45;;
67195;SDS011;54122;53.538;49.366;2023-07-20T09:32:39;1.70;;;0.43;;
67195;SDS011;54122;53.538;49.366;2023-07-20T09:35:12;3.55;;;0.47;;
67195;SDS011;54122;53.538;49.366;2023-07-20T09:38:00;8.02;;;0.50;;
67195;SDS011;54122;53.538;49.366;2023-07-20T09:40:27;5.72;;;0.50;;
67195;SDS011;54122;53.538;49.366;2023-07-20T09:42:54;13.02;;;0.82;;
67195;SDS011;54122;53.538;49.366;2023-07-20T09:45:29;1.85;;;0.63;;
67195;SDS011;54122;53.538;49.366;2023-07-20T09:48:05;2.92;;;0.50;;
67195;SDS011;54122;53.538;49.366;2023-07-20T09:50:32;8.05;;;0.40;;
67195;SDS011;54122;53.538;49.366;2023-07-20T09:52:59;0.82;;;0.30;;
67195;SDS011;54122;53.538;49.366;2023-07-20T09:55:28;1.55;;;0.35;;
67195;SDS011;54122;53.538;49.366;2023-07-20T09:57:55;2.38;;;0.40;;
67195;SDS011;54122;53.538;49.366;2023-07-20T10:00:22;0.20;;;0.20;;
67195;SDS011;54122;53.538;49.366;2023-07-20T10:02:49;1.42;;;0.30;;
67195;SDS011;54122;53.538;49.366;2023-07-20T10:05:17;1.90;;;0.35;;
67195;SDS011;54122;53.538;49.366;2023-07-20T10:07:46;1.42;;;0.47;;
67195;SDS011;54122;53.538;49.366;2023-07-20T10:10:14;2.03;;;0.40;;
67195;SDS011;54122;53.538;49.366;2023-07-20T10:12:46;2.65;;;0.70;;
67195;SDS011;54122;53.538;49.366;2023-07-20T10:20:30;12.77;;;0.63;;
67195;SDS011;54122;53.538;49.366;2023-07-20T10:22:58;2.83;;;0.55;;
67195;SDS011;54122;53.538;49.366;2023-07-20T10:25:26;7.53;;;0.60;;
67195;SDS011;54122;53.538;49.366;2023-07-20T10:27:53;4.78;;;0.52;;
67195;SDS011;54122;53.538;49.366;2023-07-20T10:30:21;2.55;;;0.50;;
67195;SDS011;54122;53.538;49.366;2023-07-20T10:32:47;2.30;;;0.50;;
67195;SDS011;54122;53.538;49.366;2023-07-20T10:35:15;8.60;;;0.55;;
67195;SDS011;54122;53.538;49.366;2023-07-20T10:37:55;0.93;;;0.30;;
67195;SDS011;54122;53.538;49.366;2023-07-20T10:42:57;0.57;;;0.40;;
67195;SDS011;54122;53.538;49.366;2023-07-20T10:48:21;1.63;;;0.40;;
67195;SDS011;54122;53.538;49.366;2023-07-20T10:53:39;1.27;;;0.82;;
67195;SDS011;54122;53.538;49.366;2023-07-20T10:56:12;1.80;;;0.40;;
67195;SDS011;54122;53.538;49.366;2023-07-20T10:58:40;1.85;;;0.50;;
67195;SDS011;54122;53.538;49.366;2023-07-20T11:01:07;0.80;;;0.50;;
67195;SDS011;54122;53.538;49.366;2023-07-20T11:03:38;1.13;;;0.50;;
67195;SDS011;54122;53.538;49.366;2023-07-20T11:11:46;2.63;;;0.50;;
67195;SDS011;54122;53.538;49.366;2023-07-20T11:16:52;0.95;;;0.50;;
67195;SDS011;54122;53.538;49.366;2023-07-20T11:19:19;1.95;;;0.60;;
67195;SDS011;54122;53.538;49.366;2023-07-20T11:21:52;3.40;;;0.60;;
67195;SDS011;54122;53.538;49.366;2023-07-20T11:24:20;6.43;;;0.40;;
67195;SDS011;54122;53.538;49.366;2023-07-20T11:26:47;2.17;;;1.02;;
67195;SDS011;54122;53.538;49.366;2023-07-20T11:29:19;2.45;;;0.80;;
67195;SDS011;54122;53.538;49.366;2023-07-20T11:31:46;3.53;;;0.70;;
67195;SDS011;54122;53.538;49.366;2023-07-20T11:34:18;3.42;;;0.60;;
67195;SDS011;54122;53.538;49.366;2023-07-20T11:36:48;2.40;;;0.70;;
67195;SDS011;54122;53.538;49.366;2023-07-20T11:39:16;5.00;;;0.60;;
67195;SDS011;54122;53.538;49.366;2023-07-20T11:44:24;0.70;;;0.40;;
67195;SDS011;54122;53.538;49.366;2023-07-20T11:49:44;3.80;;;0.57;;
67195;SDS011;54122;53.538;49.366;2023-07-20T11:52:15;4.10;;;0.63;;
67195;SDS011;54122;53.538;49.366;2023-07-20T11:54:42;2.25;;;0.55;;
67195;SDS011;54122;53.538;49.366;2023-07-20T11:57:18;3.35;;;0.50;;
67195;SDS011;54122;53.538;49.366;2023-07-20T12:00:00;2.38;;;0.50;;
67195;SDS011;54122;53.538;49.366;2023-07-20T12:02:37;2.80;;;0.50;;
67195;SDS011;54122;53.538;49.366;2023-07-20T12:05:06;1.55;;;0.52;;
67195;SDS011;54122;53.538;49.366;2023-07-20T12:07:35;2.92;;;0.75;;
67195;SDS011;54122;53.538;49.366;2023-07-20T12:10:12;1.17;;;0.43;;
67195;SDS011;54122;53.538;49.366;2023-07-20T12:12:39;1.63;;;0.38;;
67195;SDS011;54122;53.538;49.366;2023-07-20T12:17:49;2.25;;;0.40;;
67195;SDS011;54122;53.538;49.366;2023-07-20T12:20:30;1.95;;;0.52;;
67195;SDS011;54122;53.538;49.366;2023-07-20T12:23:10;1.00;;;0.45;;
67195;SDS011;54122;53.538;49.366;2023-07-20T12:25:38;2.08;;;0.60;;
67195;SDS011;54122;53.538;49.366;2023-07-20T12:28:13;3.40;;;0.60;;
67195;SDS011;54122;53.538;49.366;2023-07-20T12:30:44;2.13;;;0.88;;
67195;SDS011;54122;53.538;49.366;2023-07-20T12:33:11;0.80;;;0.50;;
67195;SDS011;54122;53.538;49.366;2023-07-20T12:35:41;3.78;;;0.60;;
67195;SDS011;54122;53.538;49.366;2023-07-20T12:38:08;5.43;;;0.50;;
67195;SDS011;54122;53.538;49.366;2023-07-20T12:40:34;4.82;;;0.60;;
67195;SDS011;54122;53.538;49.366;2023-07-20T12:43:01;4.40;;;0.70;;
67195;SDS011;54122;53.538;49.366;2023-07-20T12:45:28;3.55;;;0.60;;
67195;SDS011;54122;53.538;49.366;2023-07-20T12:47:54;2.80;;;0.65;;
67195;SDS011;54122;53.538;49.366;2023-07-20T12:50:20;1.25;;;0.30;;
67195;SDS011;54122;53.538;49.366;2023-07-20T12:52:46;2.47;;;0.40;;
67195;SDS011;54122;53.538;49.366;2023-07-20T12:55:12;12.13;;;0.80;;
67195;SDS011;54122;53.538;49.366;2023-07-20T12:57:40;3.30;;;0.43;;
67195;SDS011;54122;53.538;49.366;2023-07-20T13:00:09;0.57;;;0.38;;
67195;SDS011;54122;53.538;49.366;2023-07-20T13:02:37;1.30;;;0.30;;
67195;SDS011;54122;53.538;49.366;2023-07-20T13:05:04;1.98;;;0.55;;
67195;SDS011;54122;53.538;49.366;2023-07-20T13:07:31;1.30;;;0.47;;
67195;SDS011;54122;53.538;49.366;2023-07-20T13:10:00;2.22;;;0.60;;
67195;SDS011;54122;53.538;49.366;2023-07-20T13:12:27;2.15;;;0.35;;
67195;SDS011;54122;53.538;49.366;2023-07-20T13:14:55;1.40;;;0.40;;
67195;SDS011;54122;53.538;49.366;2023-07-20T13:17:22;5.97;;;0.63;;
67195;SDS011;54122;53.538;49.366;2023-07-20T13:19:48;2.72;;;0.63;;
67195;SDS011;54122;53.538;49.366;2023-07-20T13:22:14;1.25;;;0.40;;
67195;SDS011;54122;53.538;49.366;2023-07-20T13:24:41;1.17;;;0.50;;
67195;SDS011;54122;53.538;49.366;2023-07-20T13:27:07;0.52;;;0.30;;
67195;SDS011;54122;53.538;49.366;2023-07-20T13:29:33;0.63;;;0.40;;
67195;SDS011;54122;53.538;49.366;2023-07-20T13:32:00;1.23;;;0.40;;
67195;SDS011;54122;53.538;49.366;2023-07-20T13:34:26;6.85;;;0.47;;
67195;SDS011;54122;53.538;49.366;2023-07-20T13:36:52;3.85;;;0.95;;
67195;SDS011;54122;53.538;49.366;2023-07-20T13:39:18;2.42;;;0.70;;
67195;SDS011;54122;53.538;49.366;2023-07-20T13:41:45;0.70;;;0.30;;
67195;SDS011;54122;53.538;49.366;2023-07-20T13:44:11;1.17;;;0.43;;
67195;SDS011;54122;53.538;49.366;2023-07-20T13:46:37;2.00;;;0.40;;
67195;SDS011;54122;53.538;49.366;2023-07-20T13:49:04;0.80;;;0.38;;
67195;SDS011;54122;53.538;49.366;2023-07-20T13:51:30;1.45;;;0.40;;
67195;SDS011;54122;53.538;49.366;2023-07-20T13:53:57;1.23;;;0.47;;
67195;SDS011;54122;53.538;49.366;2023-07-20T13:56:23;6.55;;;0.82;;
67195;SDS011;54122;53.538;49.366;2023-07-20T13:58:50;3.47;;;0.35;;
67195;SDS011;54122;53.538;49.366;2023-07-20T14:01:16;2.08;;;0.43;;
67195;SDS011;54122;53.538;49.366;2023-07-20T14:03:45;3.10;;;0.68;;
67195;SDS011;54122;53.538;49.366;2023-07-20T14:06:11;11.18;;;0.80;;
67195;SDS011;54122;53.538;49.366;2023-07-20T14:08:38;1.52;;;0.30;;
67195;SDS011;54122;53.538;49.366;2023-07-20T14:11:05;5.13;;;0.50;;
67195;SDS011;54122;53.538;49.366;2023-07-20T14:13:32;3.40;;;0.40;;
67195;SDS011;54122;53.538;49.366;2023-07-20T14:15:58;3.13;;;0.40;;
67195;SDS011;54122;53.538;49.366;2023-07-20T14:18:24;10.23;;;0.60;;
67195;SDS011;54122;53.538;49.366;2023-07-20T14:20:50;0.70;;;0.50;;
67195;SDS011;54122;53.538;49.366;2023-07-20T14:23:16;1.58;;;0.40;;
67195;SDS011;54122;53.538;49.366;2023-07-20T14:25:43;1.00;;;0.60;;
67195;SDS011;54122;53.538;49.366;2023-07-20T14:28:09;1.45;;;0.77;;
67195;SDS011;54122;53.538;49.366;2023-07-20T14:30:35;7.20;;;0.57;;
67195;SDS011;54122;53.538;49.366;2023-07-20T14:33:01;4.40;;;0.63;;
67195;SDS011;54122;53.538;49.366;2023-07-20T14:35:28;1.92;;;0.57;;
67195;SDS011;54122;53.538;49.366;2023-07-20T14:37:54;4.32;;;0.73;;
67195;SDS011;54122;53.538;49.366;2023-07-20T14:40:20;4.43;;;0.45;;
67195;SDS011;54122;53.538;49.366;2023-07-20T14:42:46;8.63;;;0.65;;
67195;SDS011;54122;53.538;49.366;2023-07-20T14:45:12;4.93;;;0.55;;
67195;SDS011;54122;53.538;49.366;2023-07-20T14:47:39;0.68;;;0.40;;
67195;SDS011;54122;53.538;49.366;2023-07-20T14:50:05;3.20;;;0.40;;
67195;SDS011;54122;53.538;49.366;2023-07-20T14:52:31;6.70;;;0.47;;
67195;SDS011;54122;53.538;49.366;2023-07-20T14:54:58;1.15;;;0.30;;
67195;SDS011;54122;53.538;49.366;2023-07-20T14:57:24;2.17;;;0.68;;
67195;SDS011;54122;53.538;49.366;2023-07-20T14:59:50;1.63;;;0.50;;
67195;SDS011;54122;53.538;49.366;2023-07-20T15:02:16;2.50;;;0.40;;
67195;SDS011;54122;53.538;49.366;2023-07-20T15:04:49;2.47;;;0.63;;
67195;SDS011;54122;53.538;49.366;2023-07-20T15:07:16;1.13;;;0.45;;
67195;SDS011;54122;53.538;49.366;2023-07-20T15:09:47;0.50;;;0.30;;
67195;SDS011;54122;53.538;49.366;2023-07-20T15:12:13;4.60;;;1.02;;
67195;SDS011;54122;53.538;49.366;2023-07-20T15:14:40;1.95;;;0.50;;
67195;SDS011;54122;53.538;49.366;2023-07-20T15:17:08;1.42;;;0.60;;